Terminal Aerodrome Forecast
Issued by NWS Duluth, MN

Home | Current Version | Previous Version | Text Only | Print | Product List | Glossary On
Versions: 1 2 3 4 5 6 7 8 9 10 11 12 13 14 15 16 17 18 19 20 21 22 23 24 25 26 27 28 29 30 31 32 33 34 35 36 37 38 39 40 41 42 43 44 45 46 47
000
FTUS43 KDLH 282000 AAA
TAFDLH
TAF AMD
KDLH 282010Z 2820/2918 22012G20KT P6SM SCT060
     FM290000 VRB05KT P6SM VCSH FEW060 SCT250
     FM290200 36010G17KT P6SM VCSH SCT025 OVC040
     FM290400 06012G20KT 6SM -RA OVC015
     FM290600 06012G20KT 4SM -RA BR OVC009
     FM290800 06012G20KT 2SM -RA BR OVC004
     FM291400 06010G18KT P6SM OVC007
     FM291700 07010G18KT P6SM OVC015=

USA.gov is the U.S. government's official web portal to all federal, state and local government web resources and services.